createdAt,value
2017-12-21T00:01:16.406Z,4.50
2017-12-21T00:03:43.926Z,4.50
2017-12-21T00:06:11.425Z,4.50
2017-12-21T00:08:38.941Z,4.50
2017-12-21T00:11:06.430Z,4.60
2017-12-21T00:13:33.922Z,4.60
2017-12-21T00:16:02.201Z,4.60
2017-12-21T00:18:30.458Z,4.60
2017-12-21T00:20:57.975Z,4.60
2017-12-21T00:23:25.469Z,4.60
2017-12-21T00:25:52.986Z,4.50
2017-12-21T00:28:20.474Z,4.50
2017-12-21T00:30:47.990Z,4.50
2017-12-21T00:33:15.486Z,4.60
2017-12-21T00:35:43.006Z,4.60
2017-12-21T00:38:10.502Z,4.60
2017-12-21T00:40:37.993Z,4.60
2017-12-21T00:43:06.274Z,4.60
2017-12-21T00:45:34.530Z,4.60
2017-12-21T00:48:02.050Z,4.60
2017-12-21T00:50:29.566Z,4.60
2017-12-21T00:52:57.845Z,4.60
2017-12-21T00:55:26.093Z,4.60
2017-12-21T00:57:53.607Z,4.60
2017-12-21T01:00:21.093Z,4.60
2017-12-21T01:02:48.602Z,4.70
2017-12-21T01:05:16.861Z,4.70
2017-12-21T01:07:45.138Z,4.70
2017-12-21T01:10:13.395Z,4.70
2017-12-21T01:12:40.906Z,4.70
2017-12-21T01:15:08.394Z,4.70
2017-12-21T01:17:35.886Z,4.70
2017-12-21T01:20:03.405Z,4.70
2017-12-21T01:22:30.898Z,4.70
2017-12-21T01:24:58.410Z,4.70
2017-12-21T01:27:27.528Z,4.70
2017-12-21T01:29:55.052Z,4.70
2017-12-21T01:32:22.542Z,4.70
2017-12-21T01:34:50.062Z,4.70
2017-12-21T01:37:17.558Z,4.70
2017-12-21T01:39:45.055Z,4.70
2017-12-21T01:42:13.343Z,4.70
2017-12-21T01:44:40.833Z,4.70
2017-12-21T01:47:08.341Z,4.70
2017-12-21T01:49:36.602Z,4.80
2017-12-21T01:52:04.123Z,4.70
2017-12-21T01:54:31.614Z,4.80
2017-12-21T01:56:59.129Z,4.80
2017-12-21T01:59:26.626Z,4.70
2017-12-21T02:01:54.134Z,4.70
2017-12-21T02:04:21.622Z,4.70
2017-12-21T02:06:49.112Z,4.80
2017-12-21T02:09:16.622Z,4.80
2017-12-21T02:11:44.114Z,4.80
2017-12-21T02:14:11.622Z,4.80
2017-12-21T02:16:39.110Z,4.80
2017-12-21T02:19:06.622Z,4.80
2017-12-21T02:21:34.874Z,4.90
2017-12-21T02:24:02.381Z,4.80
2017-12-21T02:26:29.870Z,4.90
2017-12-21T02:28:57.377Z,4.90
2017-12-21T02:31:25.641Z,4.90
2017-12-21T02:33:53.134Z,4.80
2017-12-21T02:36:20.646Z,4.90
2017-12-21T02:38:48.134Z,4.90
2017-12-21T02:41:16.414Z,4.90
2017-12-21T02:43:44.665Z,4.80
2017-12-21T02:46:12.179Z,4.80
2017-12-21T02:48:39.671Z,4.80
2017-12-21T02:51:07.182Z,4.90
2017-12-21T02:53:34.674Z,4.90
2017-12-21T02:56:02.189Z,4.80
2017-12-21T02:58:29.683Z,4.80
2017-12-21T03:00:57.202Z,4.80
2017-12-21T03:03:24.689Z,4.80
2017-12-21T03:05:52.174Z,4.80
2017-12-21T03:08:19.682Z,4.80
2017-12-21T03:10:47.169Z,4.80
2017-12-21T03:13:14.678Z,4.80
2017-12-21T03:15:42.925Z,4.80
2017-12-21T03:18:10.455Z,4.80
2017-12-21T03:20:37.942Z,4.80
2017-12-21T03:23:05.459Z,4.80
2017-12-21T03:25:32.950Z,4.80
2017-12-21T03:28:00.458Z,4.80
2017-12-21T03:30:27.943Z,4.80
2017-12-21T03:32:55.438Z,4.80
2017-12-21T03:35:22.946Z,4.80
2017-12-21T03:37:50.435Z,4.80
2017-12-21T03:40:17.948Z,4.80
2017-12-21T03:42:45.438Z,4.80
2017-12-21T03:45:12.946Z,4.80
2017-12-21T03:47:41.201Z,4.80
2017-12-21T03:50:08.712Z,4.80
2017-12-21T03:52:36.201Z,4.80
2017-12-21T03:55:03.706Z,4.90
2017-12-21T03:57:31.958Z,4.90
2017-12-21T03:59:59.471Z,4.90
2017-12-21T04:02:26.962Z,4.90
2017-12-21T04:04:54.446Z,4.90
2017-12-21T04:07:22.721Z,4.90
2017-12-21T04:09:50.974Z,5.00
2017-12-21T04:12:18.482Z,4.90
2017-12-21T04:14:45.970Z,4.90
2017-12-21T04:17:13.486Z,5.00
2017-12-21T04:19:41.741Z,5.00
2017-12-21T04:22:09.256Z,4.90
2017-12-21T04:24:36.753Z,4.90
2017-12-21T04:27:04.264Z,5.00
2017-12-21T04:29:31.750Z,5.00
2017-12-21T04:31:59.262Z,5.00
2017-12-21T04:34:26.771Z,4.90
2017-12-21T04:36:54.254Z,4.90
2017-12-21T04:39:22.526Z,4.90
2017-12-21T04:41:50.024Z,4.90
2017-12-21T04:44:17.534Z,4.90
2017-12-21T04:46:45.018Z,4.90
2017-12-21T04:49:13.294Z,5.00
2017-12-21T04:51:41.550Z,5.00
2017-12-21T04:54:09.062Z,5.00
2017-12-21T04:56:36.550Z,5.00
2017-12-21T04:59:04.058Z,5.00
2017-12-21T05:01:31.551Z,5.00
2017-12-21T05:03:59.060Z,5.00
2017-12-21T05:06:27.310Z,4.90
2017-12-21T05:08:54.798Z,4.90
2017-12-21T05:11:23.082Z,5.00
2017-12-21T05:13:50.566Z,4.90
2017-12-21T05:16:18.074Z,5.00
2017-12-21T05:18:45.557Z,5.00
2017-12-21T05:21:13.066Z,5.00
2017-12-21T05:23:40.549Z,4.90
2017-12-21T05:26:08.822Z,5.00
2017-12-21T05:28:36.318Z,5.00
2017-12-21T05:31:03.828Z,5.00
2017-12-21T05:33:31.310Z,5.00
2017-12-21T05:35:59.562Z,5.00
2017-12-21T05:38:27.070Z,5.00
2017-12-21T05:40:54.554Z,5.00
2017-12-21T05:43:22.063Z,5.10
2017-12-21T05:45:50.310Z,5.10
2017-12-21T05:48:17.815Z,5.10
2017-12-21T05:50:45.298Z,5.10
2017-12-21T05:53:12.806Z,5.10
2017-12-21T05:55:41.054Z,5.10
2017-12-21T05:58:08.570Z,5.10
2017-12-21T06:00:36.062Z,5.20
2017-12-21T06:03:03.553Z,5.20
2017-12-21T06:05:31.827Z,5.20
2017-12-21T06:08:00.078Z,5.20
2017-12-21T06:10:27.587Z,5.20
2017-12-21T06:12:55.070Z,5.20
2017-12-21T06:15:22.574Z,5.30
2017-12-21T06:17:50.826Z,5.30
2017-12-21T06:20:18.337Z,5.30
2017-12-21T06:22:45.829Z,5.30
2017-12-21T06:25:13.341Z,5.40
2017-12-21T06:27:41.593Z,5.40
2017-12-21T06:30:09.094Z,5.40
2017-12-21T06:32:36.574Z,5.40
2017-12-21T06:35:04.062Z,5.50
2017-12-21T06:37:31.569Z,5.50
2017-12-21T06:39:59.057Z,5.50
2017-12-21T06:42:26.565Z,5.50
2017-12-21T06:44:54.813Z,5.50
2017-12-21T06:47:22.322Z,5.50
2017-12-21T06:49:49.802Z,5.50
2017-12-21T06:52:17.314Z,5.50
2017-12-21T06:54:45.565Z,5.50
2017-12-21T06:57:13.078Z,5.50
2017-12-21T06:59:40.566Z,5.50
2017-12-21T07:02:08.074Z,5.50
2017-12-21T07:04:35.557Z,5.50
2017-12-21T07:07:03.046Z,5.50
2017-12-21T07:09:31.318Z,5.50
2017-12-21T07:11:58.807Z,5.50
2017-12-21T07:14:27.078Z,5.50
2017-12-21T07:16:55.335Z,5.50
2017-12-21T07:19:22.837Z,5.50
2017-12-21T07:21:50.330Z,5.50
2017-12-21T07:24:17.838Z,5.50
2017-12-21T07:26:46.100Z,5.60
2017-12-21T07:29:13.608Z,5.50
2017-12-21T07:31:41.098Z,5.50
2017-12-21T07:34:08.577Z,5.60
2017-12-21T07:36:36.850Z,5.60
2017-12-21T07:39:04.334Z,5.60
2017-12-21T07:41:31.842Z,5.60
2017-12-21T07:43:59.326Z,5.60
2017-12-21T07:46:26.834Z,5.60
2017-12-21T07:48:54.319Z,5.60
2017-12-21T07:51:21.826Z,5.60
2017-12-21T07:53:49.309Z,5.60
2017-12-21T07:56:16.823Z,5.60
2017-12-21T07:58:45.074Z,5.60
2017-12-21T08:01:12.562Z,5.60
2017-12-21T08:03:40.838Z,5.60
2017-12-21T08:06:09.085Z,5.60
2017-12-21T08:08:36.589Z,5.60
2017-12-21T08:11:04.075Z,5.60
2017-12-21T08:13:31.582Z,5.60
2017-12-21T08:15:59.833Z,5.60
2017-12-21T08:18:27.343Z,5.60
2017-12-21T08:20:54.831Z,5.70
2017-12-21T08:23:22.345Z,5.70
2017-12-21T08:25:50.593Z,5.70
2017-12-21T08:28:18.075Z,5.70
2017-12-21T08:30:46.354Z,5.70
2017-12-21T08:33:14.606Z,5.70
2017-12-21T08:35:42.116Z,5.70
2017-12-21T08:38:09.602Z,5.80
2017-12-21T08:40:37.110Z,5.80
2017-12-21T08:43:04.603Z,5.80
2017-12-21T08:45:32.243Z,5.80
2017-12-21T08:47:59.735Z,5.80
2017-12-21T08:50:27.263Z,5.80
2017-12-21T08:52:54.754Z,5.90
2017-12-21T08:55:22.262Z,5.90
2017-12-21T08:57:49.771Z,5.90
2017-12-21T09:00:17.253Z,5.90
2017-12-21T09:02:44.762Z,5.90
2017-12-21T09:05:12.247Z,5.90
2017-12-21T09:07:39.753Z,5.90
2017-12-21T09:10:07.241Z,5.90
2017-12-21T09:12:34.750Z,5.90
2017-12-21T09:15:03.002Z,6.00
2017-12-21T09:17:30.515Z,6.00
2017-12-21T09:19:58.005Z,6.00
2017-12-21T09:22:25.513Z,6.00
2017-12-21T09:24:53.764Z,6.10
2017-12-21T09:27:21.250Z,6.10
2017-12-21T09:29:49.521Z,6.20
2017-12-21T09:32:17.772Z,6.20
2017-12-21T09:34:45.290Z,6.20
2017-12-21T09:37:12.782Z,6.20
2017-12-21T09:39:40.298Z,6.30
2017-12-21T09:42:07.787Z,6.30
2017-12-21T09:44:35.318Z,6.30
2017-12-21T09:47:02.829Z,6.30
2017-12-21T09:49:30.359Z,6.30
2017-12-21T09:51:57.845Z,6.40
2017-12-21T09:54:26.098Z,6.40
2017-12-21T09:56:53.621Z,6.40
2017-12-21T09:59:21.110Z,6.40
2017-12-21T10:01:48.623Z,6.50
2017-12-21T10:04:16.110Z,6.50
2017-12-21T10:06:43.622Z,6.50
2017-12-21T10:09:11.874Z,6.50
2017-12-21T10:11:39.383Z,6.50
2017-12-21T10:14:06.868Z,6.50
2017-12-21T10:16:34.378Z,6.40
2017-12-21T10:19:02.630Z,6.30
2017-12-21T10:21:30.119Z,6.30
2017-12-21T10:23:58.397Z,6.30
2017-12-21T10:26:25.888Z,6.30
2017-12-21T10:28:53.397Z,6.30
2017-12-21T10:31:21.650Z,6.30
2017-12-21T10:33:49.154Z,6.30
2017-12-21T10:36:16.642Z,6.30
2017-12-21T10:38:44.154Z,6.30
2017-12-21T10:41:12.410Z,6.30
2017-12-21T10:43:39.896Z,6.30
2017-12-21T10:46:08.165Z,6.30
2017-12-21T10:48:36.416Z,6.40
2017-12-21T10:51:03.922Z,6.30
2017-12-21T10:53:31.409Z,6.40
2017-12-21T10:55:58.918Z,6.40
2017-12-21T10:58:27.170Z,6.40
2017-12-21T11:00:54.682Z,6.40
2017-12-21T11:03:22.170Z,6.40
2017-12-21T11:05:49.654Z,6.50
2017-12-21T11:08:17.930Z,6.60
2017-12-21T11:10:46.182Z,6.50
2017-12-21T11:13:13.691Z,6.50
2017-12-21T11:15:41.181Z,6.50
2017-12-21T11:18:08.686Z,6.60
2017-12-21T11:20:36.938Z,6.60
2017-12-21T11:23:04.446Z,6.50
2017-12-21T11:25:31.930Z,6.60
2017-12-21T11:27:59.438Z,6.60
2017-12-21T11:30:27.690Z,6.50
2017-12-21T11:32:55.180Z,6.50
2017-12-21T11:35:23.456Z,6.60
2017-12-21T11:37:51.709Z,6.60
2017-12-21T11:40:19.219Z,6.60
2017-12-21T11:42:46.706Z,6.60
2017-12-21T11:45:14.218Z,6.60
2017-12-21T11:47:41.702Z,6.60
2017-12-21T11:50:09.215Z,6.60
2017-12-21T11:52:37.466Z,6.50
2017-12-21T11:55:04.979Z,6.50
2017-12-21T11:57:32.468Z,6.50
2017-12-21T11:59:59.960Z,6.50
2017-12-21T12:02:28.238Z,6.50
2017-12-21T12:04:56.489Z,6.50
2017-12-21T12:07:23.999Z,6.50
2017-12-21T12:09:51.495Z,6.50
2017-12-21T12:12:19.002Z,6.50
2017-12-21T12:14:47.257Z,6.50
2017-12-21T12:17:14.766Z,6.50
2017-12-21T12:19:42.250Z,6.60
2017-12-21T12:22:09.760Z,6.50
2017-12-21T12:24:37.247Z,6.60
2017-12-21T12:27:04.754Z,6.60
2017-12-21T12:29:33.006Z,6.50
2017-12-21T12:32:00.489Z,6.50
2017-12-21T12:34:28.762Z,6.60
2017-12-21T12:36:57.071Z,6.60
2017-12-21T12:39:24.578Z,6.50
2017-12-21T12:41:52.062Z,6.60
2017-12-21T12:44:20.338Z,6.60
2017-12-21T12:46:48.590Z,6.60
2017-12-21T12:49:16.098Z,6.60
2017-12-21T12:51:43.582Z,6.60
2017-12-21T12:54:11.094Z,6.60
2017-12-21T12:56:39.363Z,6.60
2017-12-21T12:59:07.635Z,6.60
2017-12-21T13:01:35.914Z,6.60
2017-12-21T13:04:04.172Z,6.60
2017-12-21T13:06:31.682Z,6.60
2017-12-21T13:08:59.171Z,6.70
2017-12-21T13:11:26.681Z,6.60
2017-12-21T13:13:54.165Z,6.60
2017-12-21T13:16:21.674Z,6.60
2017-12-21T13:18:49.157Z,6.70
2017-12-21T13:21:16.666Z,6.70
2017-12-21T13:23:44.150Z,6.70
2017-12-21T13:26:12.429Z,6.70
2017-12-21T13:28:40.678Z,6.70
2017-12-21T13:31:08.166Z,6.70
2017-12-21T13:33:36.438Z,6.70
2017-12-21T13:36:04.690Z,6.70
2017-12-21T13:38:32.198Z,6.70
2017-12-21T13:40:59.691Z,6.70
2017-12-21T13:43:27.198Z,6.70
2017-12-21T13:45:55.450Z,6.70
2017-12-21T13:48:22.958Z,6.70
2017-12-21T13:50:50.446Z,6.70
2017-12-21T13:53:17.954Z,6.70
2017-12-21T13:55:46.202Z,6.70
2017-12-21T13:58:13.710Z,6.60
2017-12-21T14:00:41.197Z,6.60
2017-12-21T14:03:08.682Z,6.70
2017-12-21T14:05:36.190Z,6.70
2017-12-21T14:08:03.674Z,6.70
2017-12-21T14:10:31.230Z,6.60
2017-12-21T14:12:58.686Z,6.60
2017-12-21T14:15:26.194Z,6.70
2017-12-21T14:17:54.446Z,6.70
2017-12-21T14:20:21.954Z,6.60
2017-12-21T14:22:49.442Z,6.70
2017-12-21T14:25:16.952Z,6.70
2017-12-21T14:27:44.438Z,6.70
2017-12-21T14:30:11.926Z,6.70
2017-12-21T14:32:39.437Z,6.60
2017-12-21T14:35:06.935Z,6.70
2017-12-21T14:37:34.450Z,6.70
2017-12-21T14:40:01.942Z,6.70
2017-12-21T14:42:29.449Z,6.70
2017-12-21T14:44:57.702Z,6.70
2017-12-21T14:47:26.733Z,6.70
2017-12-21T14:49:54.223Z,6.70
2017-12-21T14:52:21.731Z,6.70
2017-12-21T14:54:49.990Z,6.70
2017-12-21T14:57:17.477Z,6.70
2017-12-21T14:59:44.986Z,6.70
2017-12-21T15:02:12.470Z,6.70
2017-12-21T15:04:40.745Z,6.70
2017-12-21T15:07:08.230Z,6.60
2017-12-21T15:09:35.791Z,6.70
2017-12-21T15:12:04.018Z,6.70
2017-12-21T15:14:31.531Z,6.60
2017-12-21T15:16:59.030Z,6.70
2017-12-21T15:19:26.538Z,6.70
2017-12-21T15:21:54.026Z,6.70
2017-12-21T15:24:21.511Z,6.60
2017-12-21T15:26:49.028Z,6.70
2017-12-21T15:29:16.546Z,6.70
2017-12-21T15:31:44.050Z,6.70
2017-12-21T15:34:12.195Z,6.70
2017-12-21T15:36:40.470Z,6.70
2017-12-21T15:39:08.717Z,6.80
2017-12-21T15:41:36.227Z,6.70
2017-12-21T15:44:03.714Z,6.80
2017-12-21T15:46:31.222Z,6.70
2017-12-21T15:48:58.706Z,6.80
2017-12-21T15:51:26.232Z,6.80
2017-12-21T15:53:53.722Z,6.80
2017-12-21T15:56:21.215Z,6.80
2017-12-21T15:58:48.721Z,6.80
2017-12-21T16:01:16.202Z,6.80
2017-12-21T16:03:43.710Z,6.80
2017-12-21T16:06:11.959Z,6.80
2017-12-21T16:08:39.467Z,6.80
2017-12-21T16:11:06.953Z,6.80
2017-12-21T16:13:34.438Z,6.80
2017-12-21T16:16:01.946Z,6.80
2017-12-21T16:18:29.442Z,6.80
2017-12-21T16:20:56.956Z,6.80
2017-12-21T16:23:24.435Z,6.80
2017-12-21T16:25:51.950Z,6.80
2017-12-21T16:28:19.438Z,6.90
2017-12-21T16:30:46.958Z,6.80
2017-12-21T16:33:14.446Z,6.90
2017-12-21T16:35:41.960Z,6.90
2017-12-21T16:38:09.446Z,6.90
2017-12-21T16:40:37.719Z,6.90
2017-12-21T16:43:05.968Z,6.90
2017-12-21T16:45:33.453Z,6.90
2017-12-21T16:48:01.726Z,7.00
2017-12-21T16:50:29.210Z,6.90
2017-12-21T16:52:56.730Z,7.00
2017-12-21T16:55:24.217Z,7.00
2017-12-21T16:57:52.498Z,7.00
2017-12-21T17:00:19.990Z,7.00
2017-12-21T17:02:47.500Z,7.00
2017-12-21T17:05:15.753Z,7.00
2017-12-21T17:07:43.258Z,7.00
2017-12-21T17:10:10.746Z,7.00
2017-12-21T17:12:38.230Z,7.00
2017-12-21T17:15:05.751Z,7.00
2017-12-21T17:17:33.238Z,7.00
2017-12-21T17:20:00.742Z,7.00
2017-12-21T17:22:28.231Z,7.00
2017-12-21T17:24:55.737Z,7.00
2017-12-21T17:27:23.986Z,7.00
2017-12-21T17:29:51.490Z,6.90
2017-12-21T17:32:18.975Z,7.00
2017-12-21T17:34:46.459Z,7.00
2017-12-21T17:37:13.969Z,7.00
2017-12-21T17:39:41.462Z,7.00
2017-12-21T17:42:08.972Z,7.00
2017-12-21T17:44:37.221Z,7.00
2017-12-21T17:47:04.730Z,7.00
2017-12-21T17:49:32.251Z,7.00
2017-12-21T17:51:59.754Z,7.00
2017-12-21T17:54:27.247Z,7.00
2017-12-21T17:56:54.765Z,7.00
2017-12-21T17:59:22.258Z,7.10
2017-12-21T18:01:49.747Z,7.10
2017-12-21T18:04:18.026Z,7.10
2017-12-21T18:06:46.287Z,7.10
2017-12-21T18:09:13.794Z,7.10
2017-12-21T18:11:41.291Z,7.10
2017-12-21T18:14:08.799Z,7.10
2017-12-21T18:16:36.286Z,7.10
2017-12-21T18:19:03.795Z,7.10
2017-12-21T18:21:32.054Z,7.20
2017-12-21T18:23:59.574Z,7.10
2017-12-21T18:26:27.062Z,7.10
2017-12-21T18:28:54.603Z,7.10
2017-12-21T18:31:22.086Z,7.20
2017-12-21T18:33:49.582Z,7.10
2017-12-21T18:36:17.099Z,7.20
2017-12-21T18:38:44.598Z,7.20
2017-12-21T18:41:12.114Z,7.20
2017-12-21T18:43:39.603Z,7.20
2017-12-21T18:46:07.882Z,7.20
2017-12-21T18:48:35.369Z,7.20
2017-12-21T18:51:02.882Z,7.20
2017-12-21T18:53:31.133Z,7.20
2017-12-21T18:55:58.621Z,7.20
2017-12-21T18:58:26.898Z,7.20
2017-12-21T19:00:55.150Z,7.20
2017-12-21T19:03:22.658Z,7.20
2017-12-21T19:05:50.150Z,7.20
2017-12-21T19:08:17.687Z,7.30
2017-12-21T19:10:45.181Z,7.30
2017-12-21T19:13:12.690Z,7.30
2017-12-21T19:15:40.178Z,7.30
2017-12-21T19:18:07.698Z,7.30
2017-12-21T19:20:35.190Z,7.30
2017-12-21T19:23:02.678Z,7.40
2017-12-21T19:25:30.190Z,7.30
2017-12-21T19:27:57.682Z,7.30
2017-12-21T19:30:25.190Z,7.30
2017-12-21T19:32:52.677Z,7.30
2017-12-21T19:35:20.194Z,7.40
2017-12-21T19:37:48.451Z,7.40
2017-12-21T19:40:15.966Z,7.40
2017-12-21T19:42:43.453Z,7.40
2017-12-21T19:45:10.947Z,7.50
2017-12-21T19:47:39.222Z,7.50
2017-12-21T19:50:07.483Z,7.50
2017-12-21T19:52:35.766Z,7.50
2017-12-21T19:55:04.022Z,7.50
2017-12-21T19:57:31.539Z,7.50
2017-12-21T19:59:59.027Z,7.50
2017-12-21T20:02:26.534Z,7.50
2017-12-21T20:04:54.022Z,7.50
2017-12-21T20:07:21.506Z,7.50
2017-12-21T20:09:49.018Z,7.40
2017-12-21T20:12:16.509Z,7.40
2017-12-21T20:14:44.014Z,7.40
2017-12-21T20:17:12.266Z,7.40
2017-12-21T20:19:39.778Z,7.40
2017-12-21T20:22:07.266Z,7.40
2017-12-21T20:24:34.780Z,7.40
2017-12-21T20:27:02.266Z,7.50
2017-12-21T20:29:29.753Z,7.50
2017-12-21T20:31:57.265Z,7.50
2017-12-21T20:34:24.766Z,7.50
2017-12-21T20:36:52.274Z,7.50
2017-12-21T20:39:19.762Z,7.50
2017-12-21T20:41:47.273Z,7.50
2017-12-21T20:44:15.526Z,7.50
2017-12-21T20:46:43.039Z,7.50
2017-12-21T20:49:10.538Z,7.50
2017-12-21T20:51:38.036Z,7.60
2017-12-21T20:54:05.555Z,7.50
2017-12-21T20:56:33.051Z,7.60
2017-12-21T20:59:00.568Z,7.60
2017-12-21T21:01:28.826Z,7.60
2017-12-21T21:03:56.341Z,7.60
2017-12-21T21:06:23.838Z,7.60
2017-12-21T21:08:51.354Z,7.60
2017-12-21T21:11:18.842Z,7.60
2017-12-21T21:13:46.357Z,7.60
2017-12-21T21:16:14.619Z,7.60
2017-12-21T21:18:42.134Z,7.60
2017-12-21T21:21:09.622Z,7.60
2017-12-21T21:23:37.114Z,7.60
2017-12-21T21:26:05.389Z,7.60
2017-12-21T21:28:33.642Z,7.60
2017-12-21T21:31:01.153Z,7.60
2017-12-21T21:33:28.642Z,7.60
2017-12-21T21:35:56.155Z,7.60
2017-12-21T21:38:23.646Z,7.60
2017-12-21T21:40:51.162Z,7.60
2017-12-21T21:43:18.650Z,7.60
2017-12-21T21:45:46.166Z,7.60
2017-12-21T21:48:14.432Z,7.70
2017-12-21T21:50:41.942Z,7.70
2017-12-21T21:53:09.435Z,7.70
2017-12-21T21:55:36.926Z,7.70
2017-12-21T21:58:05.210Z,7.80
2017-12-21T22:00:32.706Z,7.70
2017-12-21T22:03:00.222Z,7.80
2017-12-21T22:05:27.710Z,7.70
2017-12-21T22:07:55.218Z,7.80
2017-12-21T22:10:23.470Z,7.70
2017-12-21T22:12:50.978Z,7.70
2017-12-21T22:15:18.466Z,7.80
2017-12-21T22:17:45.986Z,7.80
2017-12-21T22:20:14.238Z,7.70
2017-12-21T22:22:41.735Z,7.70
2017-12-21T22:25:09.245Z,7.70
2017-12-21T22:27:36.730Z,7.70
2017-12-21T22:30:05.010Z,7.70
2017-12-21T22:32:33.263Z,7.70
2017-12-21T22:35:00.770Z,7.70
2017-12-21T22:37:28.256Z,7.70
2017-12-21T22:39:55.761Z,7.70
2017-12-21T22:42:24.014Z,7.60
2017-12-21T22:44:51.528Z,7.60
2017-12-21T22:47:19.014Z,7.60
2017-12-21T22:49:46.502Z,7.60
2017-12-21T22:52:14.798Z,7.60
2017-12-21T22:54:42.291Z,7.60
2017-12-21T22:57:09.803Z,7.60
2017-12-21T22:59:38.065Z,7.60
2017-12-21T23:02:06.337Z,7.60
2017-12-21T23:04:33.827Z,7.60
2017-12-21T23:07:01.339Z,7.50
2017-12-21T23:09:28.830Z,7.50
2017-12-21T23:11:57.110Z,7.40
2017-12-21T23:14:24.593Z,7.40
2017-12-21T23:16:52.082Z,7.30
2017-12-21T23:19:19.595Z,7.30
2017-12-21T23:21:47.086Z,7.30
2017-12-21T23:24:14.594Z,7.20
2017-12-21T23:26:42.860Z,7.20
2017-12-21T23:29:11.588Z,7.10
2017-12-21T23:31:39.082Z,7.20
2017-12-21T23:34:06.600Z,7.10
2017-12-21T23:36:34.114Z,7.10
2017-12-21T23:39:01.598Z,7.10
2017-12-21T23:41:29.106Z,7.10
2017-12-21T23:43:56.623Z,7.10
2017-12-21T23:46:24.134Z,7.10
2017-12-21T23:48:51.622Z,7.10
2017-12-21T23:51:19.898Z,7.00
2017-12-21T23:53:48.150Z,7.00
2017-12-21T23:56:15.682Z,7.00
2017-12-21T23:58:43.170Z,7.00
